Time;durP1;ratioP1;P1;durP2;ratioP2;P2;SDS_P1;SDS_P2;PMS_P1;PMS_P2;Temp;Humidity;BMP_temperature;BMP_pressure;BME280_temperature;BME280_humidity;BME280_pressure;Samples;Min_cycle;Max_cycle;Signal;HPM_P1;HPM_P2
2021/11/23 00:01:17;;;;;;;;;;;3.00;95.60;;;;;;8414390;28;20011;-73
2021/11/23 00:05:19;;;;;;;;;;;3.00;95.70;;;;;;8417220;28;20029;-73
2021/11/23 00:09:20;;;;;;;;;;;3.00;95.80;;;;;;8426827;28;19955;-72
2021/11/23 00:13:22;;;;;;;;;;;3.00;95.90;;;;;;8435230;28;19923;-73
2021/11/23 00:17:24;;;;;;;;;;;3.10;96.10;;;;;;8429546;28;19978;-72
2021/11/23 00:21:25;;;;;;;;;;;3.10;96.20;;;;;;8419369;28;19948;-72
2021/11/23 00:25:28;;;;;;;;;;;3.10;96.10;;;;;;8422942;28;19943;-73
2021/11/23 00:29:30;;;;;;;;;;;3.20;96.20;;;;;;8437771;28;19921;-72
2021/11/23 00:33:36;;;;;;;;;;;3.20;96.30;;;;;;8425578;28;19948;-73
2021/11/23 00:37:38;;;;;;;;;;;3.20;96.30;;;;;;8421832;28;20274;-73
2021/11/23 00:41:40;;;;;;;;;;;3.30;96.50;;;;;;8424939;28;19927;-72
2021/11/23 00:45:42;;;;;;;;;;;3.30;96.50;;;;;;8456065;27;20343;-72
2021/11/23 00:49:43;;;;;;;;;;;3.40;96.60;;;;;;8430729;28;20454;-72
2021/11/23 00:53:45;;;;;;;;;;;3.40;96.60;;;;;;8431811;28;19923;-72
2021/11/23 00:57:47;;;;;;;;;;;3.40;96.60;;;;;;8425182;28;19966;-73
2021/11/23 01:01:48;;;;;;;;;;;3.40;96.70;;;;;;8420312;28;19955;-72
2021/11/23 01:05:50;;;;;;;;;;;3.40;96.90;;;;;;8427766;28;20020;-73
2021/11/23 01:09:52;;;;;;;;;;;3.50;96.90;;;;;;8427561;28;19967;-72
2021/11/23 01:13:53;;;;;;;;;;;3.50;96.90;;;;;;8429019;28;19928;-73
2021/11/23 01:17:55;;;;;;;;;;;3.60;97.00;;;;;;8429438;28;19948;-72
2021/11/23 01:21:57;;;;;;;;;;;3.60;97.00;;;;;;8433457;28;19928;-72
2021/11/23 01:25:58;;;;;;;;;;;3.60;97.10;;;;;;8428932;28;19931;-73
2021/11/23 01:30:00;;;;;;;;;;;3.60;97.10;;;;;;8419181;28;20299;-73
2021/11/23 01:34:02;;;;;;;;;;;3.60;97.10;;;;;;8425766;28;19920;-73
2021/11/23 01:38:04;;;;;;;;;;;3.70;97.20;;;;;;8434652;28;20364;-73
2021/11/23 01:42:06;;;;;;;;;;;3.70;97.30;;;;;;8431211;28;19920;-73
2021/11/23 01:46:09;;;;;;;;;;;3.80;97.40;;;;;;8425471;28;19920;-73
2021/11/23 01:50:11;;;;;;;;;;;3.80;97.50;;;;;;8425961;28;20367;-72
2021/11/23 01:54:13;;;;;;;;;;;3.90;97.50;;;;;;8427379;28;20391;-73
2021/11/23 01:58:15;;;;;;;;;;;3.90;97.60;;;;;;8415293;28;19962;-73
2021/11/23 02:02:16;;;;;;;;;;;3.90;97.70;;;;;;8425873;28;19963;-73
2021/11/23 02:06:18;;;;;;;;;;;3.90;97.80;;;;;;8427486;28;19969;-73
2021/11/23 02:10:20;;;;;;;;;;;4.00;97.90;;;;;;8437338;28;20291;-72
2021/11/23 02:14:22;;;;;;;;;;;4.00;98.00;;;;;;8427244;28;19919;-73
2021/11/23 02:18:26;;;;;;;;;;;4.10;98.00;;;;;;8431412;28;19942;-72
2021/11/23 02:22:27;;;;;;;;;;;4.10;98.10;;;;;;8425269;28;20332;-72
2021/11/23 02:26:29;;;;;;;;;;;4.20;98.20;;;;;;8423491;28;19964;-73
2021/11/23 02:30:33;;;;;;;;;;;4.20;98.40;;;;;;8428684;28;19955;-73
2021/11/23 02:34:35;;;;;;;;;;;4.30;98.40;;;;;;8455002;27;19964;-72
2021/11/23 02:38:37;;;;;;;;;;;4.30;98.40;;;;;;8422527;28;19962;-73
2021/11/23 02:42:39;;;;;;;;;;;4.30;98.40;;;;;;8432602;28;20383;-73
2021/11/23 02:46:41;;;;;;;;;;;4.40;98.50;;;;;;8424015;28;19951;-72
2021/11/23 02:50:47;;;;;;;;;;;4.40;98.60;;;;;;8421876;28;20291;-73
2021/11/23 02:54:55;;;;;;;;;;;4.40;98.60;;;;;;8419925;28;19927;-73
2021/11/23 02:58:57;;;;;;;;;;;4.50;98.70;;;;;;8410166;28;19971;-72
2021/11/23 03:02:59;;;;;;;;;;;4.50;98.80;;;;;;8419058;28;19956;-73
2021/11/23 03:07:01;;;;;;;;;;;4.50;98.80;;;;;;8417543;28;19927;-73
2021/11/23 03:11:02;;;;;;;;;;;4.50;99.00;;;;;;8418553;28;20297;-73
2021/11/23 03:15:05;;;;;;;;;;;4.60;99.10;;;;;;8424274;28;19958;-72
2021/11/23 03:19:07;;;;;;;;;;;4.60;99.10;;;;;;8422007;28;19969;-73
2021/11/23 03:23:09;;;;;;;;;;;4.60;99.10;;;;;;8431815;28;19963;-72
2021/11/23 03:27:11;;;;;;;;;;;4.60;99.20;;;;;;8422766;28;19920;-73
2021/11/23 03:31:12;;;;;;;;;;;4.70;99.30;;;;;;8438872;28;19928;-72
2021/11/23 03:35:15;;;;;;;;;;;4.70;99.30;;;;;;8425745;28;20406;-72
2021/11/23 03:39:16;;;;;;;;;;;4.70;99.30;;;;;;8433783;28;20434;-73
2021/11/23 03:43:18;;;;;;;;;;;4.70;99.30;;;;;;8436440;28;19976;-73
2021/11/23 03:47:21;;;;;;;;;;;4.70;99.30;;;;;;8429930;28;19966;-73
2021/11/23 03:51:23;;;;;;;;;;;4.70;99.30;;;;;;8432788;28;20379;-73
2021/11/23 03:55:26;;;;;;;;;;;4.70;99.30;;;;;;8426410;28;19967;-73
2021/11/23 03:59:27;;;;;;;;;;;4.70;99.70;;;;;;8420510;28;19967;-73
2021/11/23 04:03:29;;;;;;;;;;;4.70;99.60;;;;;;8423253;28;19966;-73
2021/11/23 04:07:30;;;;;;;;;;;4.70;99.50;;;;;;8426551;28;19927;-73
2021/11/23 04:11:32;;;;;;;;;;;4.70;99.60;;;;;;8433020;28;19959;-73
2021/11/23 04:15:35;;;;;;;;;;;4.80;99.70;;;;;;8437048;28;19920;-73
2021/11/23 04:19:37;;;;;;;;;;;4.80;99.70;;;;;;8440191;28;19931;-73
2021/11/23 04:23:39;;;;;;;;;;;4.80;99.80;;;;;;8434604;28;19924;-73
2021/11/23 04:27:40;;;;;;;;;;;4.80;99.90;;;;;;8433759;28;19959;-72
2021/11/23 04:31:42;;;;;;;;;;;4.90;99.90;;;;;;8433929;28;20425;-72
2021/11/23 04:35:44;;;;;;;;;;;4.90;99.90;;;;;;8423207;28;19963;-72
2021/11/23 04:39:49;;;;;;;;;;;5.00;99.90;;;;;;8420825;28;19924;-73
2021/11/23 04:43:51;;;;;;;;;;;5.00;99.90;;;;;;8423880;28;19962;-73
2021/11/23 04:47:53;;;;;;;;;;;5.10;99.90;;;;;;8421997;28;19974;-73
2021/11/23 04:51:55;;;;;;;;;;;5.10;99.90;;;;;;8434283;28;19927;-73
2021/11/23 04:55:56;;;;;;;;;;;5.20;99.90;;;;;;8433371;28;20310;-73
2021/11/23 04:59:58;;;;;;;;;;;5.20;99.90;;;;;;8416234;28;19927;-73
2021/11/23 05:03:59;;;;;;;;;;;5.20;99.90;;;;;;8427806;28;20348;-73
2021/11/23 05:08:01;;;;;;;;;;;5.30;99.90;;;;;;8457897;27;19927;-73
2021/11/23 05:12:03;;;;;;;;;;;5.30;99.90;;;;;;8426989;28;19966;-72
2021/11/23 05:16:05;;;;;;;;;;;5.30;99.90;;;;;;8427164;28;19951;-73
2021/11/23 05:20:08;;;;;;;;;;;5.30;99.90;;;;;;8426197;28;20364;-73
2021/11/23 05:24:10;;;;;;;;;;;5.30;99.90;;;;;;8427486;28;19963;-73
2021/11/23 05:28:11;;;;;;;;;;;5.30;99.90;;;;;;8456113;28;19970;-73
2021/11/23 05:32:13;;;;;;;;;;;5.30;99.90;;;;;;8386061;28;1026537;-73
2021/11/23 05:36:15;;;;;;;;;;;5.30;99.90;;;;;;8423179;28;20442;-73
2021/11/23 05:40:16;;;;;;;;;;;5.40;99.90;;;;;;8427355;28;19962;-73
2021/11/23 05:44:18;;;;;;;;;;;5.40;99.90;;;;;;8420033;28;19974;-73
2021/11/23 05:48:20;;;;;;;;;;;5.40;99.90;;;;;;8414271;28;19924;-73
2021/11/23 05:52:22;;;;;;;;;;;5.40;99.90;;;;;;8428068;28;19977;-73
2021/11/23 05:56:23;;;;;;;;;;;5.50;99.90;;;;;;8427367;28;20347;-73
2021/11/23 06:00:25;;;;;;;;;;;5.50;99.90;;;;;;8415171;28;19948;-73
2021/11/23 06:04:27;;;;;;;;;;;5.50;99.90;;;;;;8431562;28;19926;-73
2021/11/23 06:08:28;;;;;;;;;;;5.50;99.90;;;;;;8421920;28;20359;-73
2021/11/23 06:12:31;;;;;;;;;;;5.50;99.90;;;;;;8425442;28;19971;-73
2021/11/23 06:16:35;;;;;;;;;;;5.60;99.90;;;;;;8423600;28;19919;-74
2021/11/23 06:20:36;;;;;;;;;;;5.60;99.90;;;;;;8427331;28;19935;-73
2021/11/23 06:24:38;;;;;;;;;;;5.60;99.90;;;;;;8423489;28;19963;-73
2021/11/23 06:28:40;;;;;;;;;;;5.60;99.90;;;;;;8425090;28;19959;-73
2021/11/23 06:32:41;;;;;;;;;;;5.60;99.90;;;;;;8424972;28;19919;-73
2021/11/23 06:36:43;;;;;;;;;;;5.50;99.90;;;;;;8423202;28;19920;-73
2021/11/23 06:40:45;;;;;;;;;;;5.50;99.90;;;;;;8418683;28;19919;-73
2021/11/23 06:44:46;;;;;;;;;;;5.60;99.90;;;;;;8424665;28;20248;-73
2021/11/23 06:48:48;;;;;;;;;;;5.60;99.90;;;;;;8418241;28;19972;-73
2021/11/23 06:52:50;;;;;;;;;;;5.60;99.90;;;;;;8426281;27;19920;-73
2021/11/23 06:56:55;;;;;;;;;;;5.50;99.90;;;;;;8427453;28;19960;-74
2021/11/23 07:00:56;;;;;;;;;;;5.50;99.90;;;;;;8411935;28;19927;-73
2021/11/23 07:04:59;;;;;;;;;;;5.50;99.90;;;;;;8422140;28;19970;-73
2021/11/23 07:09:02;;;;;;;;;;;5.50;99.90;;;;;;8421752;28;19928;-74
2021/11/23 07:13:03;;;;;;;;;;;5.50;99.90;;;;;;8419374;28;19927;-73
2021/11/23 07:17:05;;;;;;;;;;;5.60;99.90;;;;;;8423853;28;19927;-73
2021/11/23 07:21:06;;;;;;;;;;;5.60;99.90;;;;;;8416396;28;19924;-73
2021/11/23 07:25:28;;;;;;;;;;;5.60;99.90;;;;;;8420966;28;20276;-72
2021/11/23 07:29:29;;;;;;;;;;;5.70;99.90;;;;;;8450673;28;19924;-72
2021/11/23 07:33:31;;;;;;;;;;;5.80;99.90;;;;;;8428814;28;19963;-73
2021/11/23 07:37:40;;;;;;;;;;;5.80;99.90;;;;;;8438603;28;20031;-73
2021/11/23 07:41:41;;;;;;;;;;;5.80;99.90;;;;;;8423242;28;19962;-73
2021/11/23 07:45:43;;;;;;;;;;;5.90;99.90;;;;;;8417340;28;19955;-73
2021/11/23 07:49:45;;;;;;;;;;;5.90;99.90;;;;;;8420415;28;20429;-72
2021/11/23 07:53:46;;;;;;;;;;;5.90;99.90;;;;;;8427183;28;19946;-73
2021/11/23 07:57:48;;;;;;;;;;;6.00;99.90;;;;;;8424833;28;19978;-73
2021/11/23 08:01:50;;;;;;;;;;;6.10;99.90;;;;;;8428998;28;19928;-73
2021/11/23 08:05:52;;;;;;;;;;;6.20;99.90;;;;;;8416498;28;19987;-73
2021/11/23 08:09:54;;;;;;;;;;;6.30;99.90;;;;;;8422851;28;19978;-73
2021/11/23 08:13:55;;;;;;;;;;;6.30;99.90;;;;;;8418693;28;19923;-73
2021/11/23 08:17:57;;;;;;;;;;;6.40;99.90;;;;;;8421798;28;19964;-72
2021/11/23 08:21:59;;;;;;;;;;;6.40;99.90;;;;;;8426672;28;20290;-72
2021/11/23 08:26:01;;;;;;;;;;;6.50;99.90;;;;;;8428679;28;19927;-73
2021/11/23 08:30:03;;;;;;;;;;;6.60;99.90;;;;;;8427309;28;19927;-73
2021/11/23 08:34:05;;;;;;;;;;;6.60;99.90;;;;;;8428064;28;19939;-73
2021/11/23 08:38:07;;;;;;;;;;;6.70;99.90;;;;;;8427311;28;19963;-73
2021/11/23 08:42:08;;;;;;;;;;;6.80;99.90;;;;;;8424148;28;19924;-73
2021/11/23 08:46:10;;;;;;;;;;;6.90;99.90;;;;;;8418854;28;19968;-73
2021/11/23 08:50:12;;;;;;;;;;;7.00;99.90;;;;;;8436464;28;19946;-73
2021/11/23 08:54:14;;;;;;;;;;;7.10;99.90;;;;;;8425176;28;19920;-73
2021/11/23 08:58:16;;;;;;;;;;;7.20;99.90;;;;;;8420934;28;19956;-73
2021/11/23 09:02:18;;;;;;;;;;;7.30;99.90;;;;;;8457780;27;20364;-73
2021/11/23 09:06:22;;;;;;;;;;;7.50;99.90;;;;;;8426280;28;19928;-73
2021/11/23 09:10:25;;;;;;;;;;;7.60;99.90;;;;;;8414540;28;20741;-73
2021/11/23 09:14:31;;;;;;;;;;;7.70;99.90;;;;;;8439334;27;19968;-73
2021/11/23 09:18:33;;;;;;;;;;;7.80;99.90;;;;;;8427895;28;19920;-73
2021/11/23 09:22:34;;;;;;;;;;;7.90;99.90;;;;;;8419510;28;19959;-73
2021/11/23 09:26:36;;;;;;;;;;;8.00;99.90;;;;;;8434988;28;20359;-73
2021/11/23 09:30:39;;;;;;;;;;;8.10;99.90;;;;;;8422732;28;20363;-72
2021/11/23 09:34:41;;;;;;;;;;;8.30;99.90;;;;;;8434514;28;19924;-73
2021/11/23 09:38:42;;;;;;;;;;;8.40;99.90;;;;;;8434726;28;19967;-73
2021/11/23 09:42:46;;;;;;;;;;;8.60;99.90;;;;;;8438254;28;19927;-72
2021/11/23 09:46:48;;;;;;;;;;;8.70;99.90;;;;;;8420688;28;19928;-73
2021/11/23 09:50:50;;;;;;;;;;;8.80;99.90;;;;;;8420994;28;19920;-72
2021/11/23 09:54:52;;;;;;;;;;;8.90;99.90;;;;;;8422081;28;19943;-73
2021/11/23 09:58:56;;;;;;;;;;;9.00;99.90;;;;;;8415309;28;19930;-72
2021/11/23 10:03:08;;;;;;;;;;;9.10;99.90;;;;;;8428841;28;19974;-73
2021/11/23 10:07:10;;;;;;;;;;;9.30;99.90;;;;;;8419477;28;19924;-73
2021/11/23 10:11:19;;;;;;;;;;;9.40;99.90;;;;;;8425671;28;19974;-73
2021/11/23 10:15:24;;;;;;;;;;;9.50;99.90;;;;;;8426760;28;19924;-73
2021/11/23 10:19:34;;;;;;;;;;;9.80;99.90;;;;;;8424940;28;19920;-74
2021/11/23 10:23:37;;;;;;;;;;;10.10;99.90;;;;;;8423197;28;20296;-74
2021/11/23 10:27:43;;;;;;;;;;;10.30;99.90;;;;;;8424080;28;19921;-73
2021/11/23 10:31:46;;;;;;;;;;;10.40;99.90;;;;;;8420939;28;19920;-73
2021/11/23 10:35:51;;;;;;;;;;;10.50;99.90;;;;;;8455276;27;19924;-73
2021/11/23 10:39:53;;;;;;;;;;;10.70;99.90;;;;;;8415274;28;19924;-73
2021/11/23 10:43:55;;;;;;;;;;;11.60;99.90;;;;;;8425379;28;19920;-73
2021/11/23 10:47:57;;;;;;;;;;;12.70;99.90;;;;;;8417247;28;20291;-73
2021/11/23 10:51:59;;;;;;;;;;;13.40;99.90;;;;;;8424089;28;20025;-73
2021/11/23 10:56:06;;;;;;;;;;;13.80;99.90;;;;;;8430421;27;20018;-74
2021/11/23 11:00:09;;;;;;;;;;;13.80;99.90;;;;;;8414574;28;19924;-74
2021/11/23 11:04:12;;;;;;;;;;;13.80;99.90;;;;;;8422703;28;19947;-74
2021/11/23 11:08:15;;;;;;;;;;;13.50;99.90;;;;;;8455106;27;19952;-73
2021/11/23 11:12:18;;;;;;;;;;;13.10;99.90;;;;;;8418934;28;20007;-73
2021/11/23 11:16:21;;;;;;;;;;;12.80;99.90;;;;;;8423074;28;20429;-73
2021/11/23 11:20:34;;;;;;;;;;;12.50;99.90;;;;;;8414234;28;19965;-73
2021/11/23 11:28:53;;;;;;;;;;;11.70;99.90;;;;;;8412366;28;19931;-73
2021/11/23 11:33:09;;;;;;;;;;;11.40;99.90;;;;;;8418716;28;19927;-73
2021/11/23 11:37:16;;;;;;;;;;;11.20;99.90;;;;;;8425127;28;20350;-74
2021/11/23 11:41:38;;;;;;;;;;;11.10;99.90;;;;;;8423337;28;19924;-73
2021/11/23 11:45:44;;;;;;;;;;;11.00;99.90;;;;;;8414226;28;19978;-73
2021/11/23 11:49:50;;;;;;;;;;;11.00;99.90;;;;;;8422236;28;19967;-74
2021/11/23 11:53:52;;;;;;;;;;;10.90;99.90;;;;;;8414664;28;20331;-73
2021/11/23 11:57:55;;;;;;;;;;;10.90;99.90;;;;;;8413442;28;19928;-73
2021/11/23 12:02:04;;;;;;;;;;;11.00;99.90;;;;;;8421731;28;19927;-73
2021/11/23 12:06:07;;;;;;;;;;;11.00;99.90;;;;;;8424583;28;20006;-74
2021/11/23 12:10:15;;;;;;;;;;;11.00;99.90;;;;;;8420780;28;19927;-73
2021/11/23 12:14:19;;;;;;;;;;;11.10;99.90;;;;;;8432879;28;19920;-74
2021/11/23 12:18:33;;;;;;;;;;;11.20;99.90;;;;;;8423505;28;19920;-73
2021/11/23 12:22:39;;;;;;;;;;;11.20;99.90;;;;;;8422350;28;19954;-73
2021/11/23 12:26:40;;;;;;;;;;;11.30;99.90;;;;;;8426097;28;19967;-73
2021/11/23 12:30:42;;;;;;;;;;;11.30;99.90;;;;;;8416791;28;19931;-74
2021/11/23 12:34:48;;;;;;;;;;;11.40;99.90;;;;;;8424097;28;19995;-73
2021/11/23 12:38:51;;;;;;;;;;;11.50;99.90;;;;;;8424311;28;20360;-75
2021/11/23 12:42:55;;;;;;;;;;;11.60;99.90;;;;;;8426260;28;20819;-73
2021/11/23 12:46:59;;;;;;;;;;;11.70;99.90;;;;;;8433276;28;19920;-73
2021/11/23 12:51:33;;;;;;;;;;;11.80;99.90;;;;;;8417178;28;19959;-74
2021/11/23 12:55:35;;;;;;;;;;;11.90;99.90;;;;;;8394542;27;20410;-73
2021/11/23 12:59:37;;;;;;;;;;;11.90;99.90;;;;;;8399481;28;20367;-75
2021/11/23 13:03:38;;;;;;;;;;;12.00;99.90;;;;;;8406749;28;20001;-73
2021/11/23 13:07:43;;;;;;;;;;;12.10;99.90;;;;;;8400364;28;19931;-74
2021/11/23 13:11:45;;;;;;;;;;;12.40;99.90;;;;;;8399659;28;20007;-73
2021/11/23 13:15:47;;;;;;;;;;;12.50;99.90;;;;;;8410648;28;19989;-73
2021/11/23 13:19:50;;;;;;;;;;;12.60;99.90;;;;;;8406587;28;20375;-73
2021/11/23 13:23:52;;;;;;;;;;;12.50;99.90;;;;;;8400264;28;19967;-74
2021/11/23 13:28:12;;;;;;;;;;;12.40;99.90;;;;;;8400851;28;20065;-73
2021/11/23 13:32:14;;;;;;;;;;;12.30;99.90;;;;;;8401016;28;19978;-73
2021/11/23 13:36:17;;;;;;;;;;;12.30;99.90;;;;;;8402593;28;19972;-75
2021/11/23 13:40:23;;;;;;;;;;;12.30;99.90;;;;;;8411540;28;19919;-74
2021/11/23 13:44:26;;;;;;;;;;;12.30;99.90;;;;;;8403428;28;19920;-74
2021/11/23 13:48:28;;;;;;;;;;;12.40;99.90;;;;;;8399664;28;19928;-74
2021/11/23 13:52:32;;;;;;;;;;;12.50;99.90;;;;;;8400870;28;19986;-74
2021/11/23 13:56:35;;;;;;;;;;;12.70;99.90;;;;;;8408288;28;19988;-74
2021/11/23 14:00:37;;;;;;;;;;;12.80;99.90;;;;;;8400809;28;19966;-74
2021/11/23 14:04:42;;;;;;;;;;;12.90;99.90;;;;;;8398901;28;19928;-74
2021/11/23 14:08:44;;;;;;;;;;;12.90;99.90;;;;;;8400646;28;19924;-73
2021/11/23 14:12:46;;;;;;;;;;;13.00;99.90;;;;;;8402649;28;19962;-74
2021/11/23 14:16:55;;;;;;;;;;;13.00;99.90;;;;;;8409165;28;19951;-74
2021/11/23 14:20:59;;;;;;;;;;;13.00;99.90;;;;;;8403362;28;19977;-73
2021/11/23 14:25:14;;;;;;;;;;;13.10;99.90;;;;;;8399748;28;20321;-73
2021/11/23 14:29:18;;;;;;;;;;;12.90;99.90;;;;;;8399142;28;19985;-73
2021/11/23 14:33:23;;;;;;;;;;;12.70;99.90;;;;;;8397195;28;20108;-74
2021/11/23 14:37:25;;;;;;;;;;;12.50;99.90;;;;;;8400242;28;20286;-74
2021/11/23 14:41:27;;;;;;;;;;;12.30;99.90;;;;;;8398137;28;19920;-74
2021/11/23 14:45:29;;;;;;;;;;;12.10;99.90;;;;;;8403820;28;19927;-74
2021/11/23 14:49:31;;;;;;;;;;;11.90;99.90;;;;;;8390029;28;19924;-74
2021/11/23 14:53:33;;;;;;;;;;;11.80;99.90;;;;;;8389670;28;19928;-74
2021/11/23 14:57:35;;;;;;;;;;;11.70;99.90;;;;;;8401378;28;19920;-74
2021/11/23 15:01:36;;;;;;;;;;;11.60;99.90;;;;;;8395973;28;19947;-74
2021/11/23 15:05:39;;;;;;;;;;;11.60;99.90;;;;;;8398091;28;19932;-73
2021/11/23 15:09:42;;;;;;;;;;;11.50;99.90;;;;;;8390551;28;19920;-73
2021/11/23 15:13:43;;;;;;;;;;;11.40;99.90;;;;;;8392048;28;20063;-74
2021/11/23 15:17:46;;;;;;;;;;;11.30;99.90;;;;;;8395664;28;19928;-73
2021/11/23 15:21:48;;;;;;;;;;;11.30;99.90;;;;;;8401457;28;19928;-73
2021/11/23 15:25:50;;;;;;;;;;;11.20;99.90;;;;;;8392157;28;19924;-74
2021/11/23 15:29:51;;;;;;;;;;;11.20;99.90;;;;;;8393530;28;19959;-74
2021/11/23 15:33:53;;;;;;;;;;;11.10;99.90;;;;;;8394741;28;19925;-74
2021/11/23 15:37:55;;;;;;;;;;;11.10;99.90;;;;;;8402074;28;20047;-74
2021/11/23 15:41:56;;;;;;;;;;;11.00;99.90;;;;;;8420802;28;20359;-74
2021/11/23 15:45:59;;;;;;;;;;;10.90;99.90;;;;;;8403360;28;20280;-74
2021/11/23 15:50:00;;;;;;;;;;;10.80;99.90;;;;;;8402006;28;19971;-74
2021/11/23 15:54:02;;;;;;;;;;;10.80;99.90;;;;;;8408052;28;19947;-74
2021/11/23 15:58:04;;;;;;;;;;;10.70;99.90;;;;;;8408529;28;19971;-74
2021/11/23 16:02:12;;;;;;;;;;;10.60;99.90;;;;;;8413980;28;20210;-75
2021/11/23 16:06:14;;;;;;;;;;;10.60;99.90;;;;;;8403043;28;19931;-73
2021/11/23 16:10:16;;;;;;;;;;;10.60;99.90;;;;;;8414460;28;20446;-74
2021/11/23 16:14:17;;;;;;;;;;;10.50;99.90;;;;;;8408856;28;19921;-73
2021/11/23 16:18:19;;;;;;;;;;;10.40;99.90;;;;;;8414201;27;19920;-73
2021/11/23 16:22:28;;;;;;;;;;;10.40;99.90;;;;;;8402392;28;19931;-74
2021/11/23 16:26:34;;;;;;;;;;;10.40;99.90;;;;;;8396960;28;20345;-73
2021/11/23 16:30:36;;;;;;;;;;;10.40;99.90;;;;;;8408219;28;20413;-74
2021/11/23 16:34:42;;;;;;;;;;;10.30;99.90;;;;;;8397613;28;19968;-73
2021/11/23 16:38:44;;;;;;;;;;;10.30;99.90;;;;;;8390418;28;19960;-74
2021/11/23 16:42:45;;;;;;;;;;;10.30;99.90;;;;;;8394161;28;21082;-73
2021/11/23 16:46:47;;;;;;;;;;;10.30;99.90;;;;;;8393150;28;19924;-73
2021/11/23 16:50:49;;;;;;;;;;;10.30;99.90;;;;;;8395207;28;20059;-73
2021/11/23 16:54:51;;;;;;;;;;;10.30;99.90;;;;;;8394523;28;19928;-73
2021/11/23 16:58:53;;;;;;;;;;;10.20;99.90;;;;;;8395097;28;19924;-74
2021/11/23 17:03:09;;;;;;;;;;;10.20;99.90;;;;;;8392680;28;19932;-73
2021/11/23 17:07:10;;;;;;;;;;;10.10;99.90;;;;;;8391088;28;20570;-73
2021/11/23 17:11:12;;;;;;;;;;;10.00;99.90;;;;;;8392359;28;19967;-73
2021/11/23 17:15:14;;;;;;;;;;;9.90;99.90;;;;;;8402164;28;19967;-74
2021/11/23 17:19:16;;;;;;;;;;;9.80;99.90;;;;;;8395396;28;20244;-74
2021/11/23 17:23:18;;;;;;;;;;;9.70;99.90;;;;;;8409925;27;20364;-73
2021/11/23 17:27:20;;;;;;;;;;;9.50;99.90;;;;;;8393232;28;20584;-73
2021/11/23 17:31:22;;;;;;;;;;;9.40;99.90;;;;;;8412803;27;19924;-73
2021/11/23 17:35:24;;;;;;;;;;;9.40;99.90;;;;;;8395257;28;19963;-74
2021/11/23 17:39:30;;;;;;;;;;;9.20;99.90;;;;;;8398648;28;20342;-73
2021/11/23 17:43:32;;;;;;;;;;;9.20;99.90;;;;;;8402583;28;19963;-73
2021/11/23 17:47:34;;;;;;;;;;;9.20;99.90;;;;;;8402405;28;19928;-74
2021/11/23 17:51:36;;;;;;;;;;;9.20;99.90;;;;;;8404615;28;19968;-73
2021/11/23 17:55:37;;;;;;;;;;;9.10;99.90;;;;;;8405793;28;20015;-73
2021/11/23 17:59:42;;;;;;;;;;;9.10;99.90;;;;;;8414332;27;20371;-73
2021/11/23 18:03:44;;;;;;;;;;;9.00;99.90;;;;;;8397612;28;19971;-73
2021/11/23 18:07:47;;;;;;;1.30;0.57;;;9.00;99.90;;;;;;8406704;28;19920;-74
2021/11/23 18:11:48;;;;;;;1.25;0.63;;;8.80;99.90;;;;;;8412275;27;20052;-73
2021/11/23 18:15:56;;;;;;;1.75;0.70;;;8.80;99.90;;;;;;8405627;28;20139;-74
2021/11/23 18:19:58;;;;;;;;;;;8.70;99.90;;;;;;8398859;28;20048;-73
2021/11/23 18:24:00;;;;;;;1.65;0.88;;;8.50;99.90;;;;;;8409425;28;19974;-74
2021/11/23 18:28:02;;;;;;;3.20;1.48;;;8.40;99.90;;;;;;8399150;28;20044;-73
2021/11/23 18:32:04;;;;;;;4.35;1.95;;;8.30;99.90;;;;;;8400583;28;20471;-74
2021/11/23 18:36:07;;;;;;;6.45;3.47;;;8.20;99.90;;;;;;8400794;28;20044;-76
2021/11/23 18:40:10;;;;;;;6.60;3.80;;;8.10;99.90;;;;;;8399442;28;20127;-74
2021/11/23 18:44:11;;;;;;;7.32;4.28;;;8.00;99.90;;;;;;8404994;28;20148;-73
2021/11/23 18:48:13;;;;;;;7.10;4.22;;;7.90;99.90;;;;;;8407027;28;24433;-73
2021/11/23 18:52:19;;;;;;;6.90;4.22;;;7.90;99.90;;;;;;8396762;28;20396;-73
2021/11/23 18:56:21;;;;;;;7.47;4.20;;;7.80;99.90;;;;;;8400675;28;20151;-73
2021/11/23 19:00:28;;;;;;;6.70;4.03;;;7.80;99.90;;;;;;8403901;28;20124;-74
2021/11/23 19:04:31;;;;;;;6.43;3.28;;;7.80;99.90;;;;;;8402615;28;20095;-74
2021/11/23 19:08:35;;;;;;;5.72;3.20;;;7.80;99.90;;;;;;8414071;27;20545;-74
2021/11/23 19:12:39;;;;;;;5.97;3.13;;;7.80;99.90;;;;;;8407278;28;20059;-73
2021/11/23 19:16:41;;;;;;;6.45;3.20;;;7.80;99.90;;;;;;8395931;28;20519;-73
2021/11/23 19:20:43;;;;;;;4.70;2.45;;;7.80;99.90;;;;;;8402810;28;20052;-74
2021/11/23 19:24:49;;;;;;;5.22;2.58;;;7.70;99.90;;;;;;8394203;28;20094;-73
2021/11/23 19:28:57;;;;;;;3.85;2.10;;;7.70;99.90;;;;;;8405175;28;20040;-74
2021/11/23 19:32:59;;;;;;;;;;;7.60;99.90;;;;;;8388622;28;20084;-73
2021/11/23 19:37:00;;;;;;;;;;;7.60;99.90;;;;;;8389996;28;19964;-73
2021/11/23 19:41:02;;;;;;;;;;;7.50;99.90;;;;;;8388983;28;19924;-74
2021/11/23 19:45:04;;;;;;;;;;;7.40;99.90;;;;;;8383929;28;19994;-74
2021/11/23 19:49:11;;;;;;;;;;;7.30;99.90;;;;;;8379526;28;19994;-73
2021/11/23 19:53:13;;;;;;;;;;;7.20;99.90;;;;;;8385267;28;19964;-73
2021/11/23 19:57:14;;;;;;;;;;;7.10;99.90;;;;;;8390501;28;20761;-73
2021/11/23 20:01:17;;;;;;;;;;;7.10;99.90;;;;;;8388326;28;19971;-73
2021/11/23 20:05:19;;;;;;;;;;;7.00;99.90;;;;;;8389059;28;19960;-73
2021/11/23 20:09:21;;;;;;;;;;;6.90;99.90;;;;;;8390878;28;19952;-73
2021/11/23 20:13:23;;;;;;;;;;;6.80;99.90;;;;;;8391231;28;19970;-73
2021/11/23 20:17:25;;;;;;;;;;;6.70;99.90;;;;;;8393100;28;19947;-73
2021/11/23 20:21:28;;;;;;;;;;;6.60;99.90;;;;;;8391580;28;20313;-74
2021/11/23 20:25:30;;;;;;;;;;;6.60;99.90;;;;;;8395171;28;20558;-73
2021/11/23 20:29:32;;;;;;;;;;;6.50;99.90;;;;;;8393556;28;19921;-73
2021/11/23 20:33:34;;;;;;;;;;;6.40;99.90;;;;;;8395707;28;19947;-73
2021/11/23 20:37:35;;;;;;;;;;;6.30;99.90;;;;;;8394276;28;19928;-74
2021/11/23 20:41:37;;;;;;;;;;;6.20;99.90;;;;;;8424835;27;19939;-73
2021/11/23 20:45:50;;;;;;;;;;;6.10;99.90;;;;;;8395198;28;19924;-73
2021/11/23 20:49:51;;;;;;;;;;;6.10;99.90;;;;;;8393910;28;19930;-73
2021/11/23 20:53:53;;;;;;;;;;;6.00;99.90;;;;;;8408177;27;20683;-73
2021/11/23 20:57:56;;;;;;;;;;;6.00;99.90;;;;;;8394862;28;19978;-73
2021/11/23 21:01:57;;;;;;;;;;;5.90;99.90;;;;;;8390220;28;20013;-74
2021/11/23 21:05:59;;;;;;;;;;;5.90;99.90;;;;;;8393996;28;20311;-73
2021/11/23 21:10:02;;;;;;;;;;;5.80;99.90;;;;;;8396081;28;19964;-73
2021/11/23 21:14:07;;;;;;;;;;;5.80;99.90;;;;;;8394298;28;19968;-73
2021/11/23 21:18:09;;;;;;;;;;;5.70;99.90;;;;;;8398192;28;19967;-73
2021/11/23 21:22:11;;;;;;;;;;;5.70;99.90;;;;;;8389610;28;19963;-73
2021/11/23 21:26:13;;;;;;;;;;;5.70;99.90;;;;;;8392533;28;19951;-73
2021/11/23 21:30:14;;;;;;;;;;;5.60;99.90;;;;;;8390201;28;20559;-73
2021/11/23 21:34:16;;;;;;;;;;;5.50;99.90;;;;;;8391444;28;19928;-74
2021/11/23 21:38:18;;;;;;;;;;;5.50;99.90;;;;;;8425957;27;19928;-73
2021/11/23 21:42:20;;;;;;;;;;;5.50;99.90;;;;;;8390656;28;19924;-73
2021/11/23 21:46:26;;;;;;;;;;;5.50;99.90;;;;;;8388917;28;19935;-73
2021/11/23 21:50:28;;;;;;;;;;;5.50;99.90;;;;;;8391159;28;20031;-73
2021/11/23 21:54:30;;;;;;;;;;;5.60;99.90;;;;;;8387383;28;19920;-73
2021/11/23 21:58:31;;;;;;;;;;;5.60;99.90;;;;;;8402209;28;19967;-73
2021/11/23 22:02:33;;;;;;;;;;;5.60;99.90;;;;;;8400645;28;19920;-73
2021/11/23 22:06:35;;;;;;;;;;;5.60;99.90;;;;;;8420589;28;19935;-73
2021/11/23 22:10:39;;;;;;;;;;;5.70;99.90;;;;;;8419488;28;20336;-73
2021/11/23 22:14:40;;;;;;;;;;;5.70;99.90;;;;;;8429733;28;19919;-74
2021/11/23 22:18:42;;;;;;;;;;;5.80;99.90;;;;;;8428294;28;20425;-74
2021/11/23 22:22:46;;;;;;;;;;;5.80;99.90;;;;;;8421809;28;19927;-74
2021/11/23 22:26:48;;;;;;;;;;;5.90;99.90;;;;;;8429056;28;19920;-73
2021/11/23 22:30:50;;;;;;;;;;;5.90;99.90;;;;;;8431509;28;20318;-73
2021/11/23 22:34:51;;;;;;;;;;;6.00;99.90;;;;;;8429797;28;19931;-73
2021/11/23 22:38:53;;;;;;;;;;;6.00;99.90;;;;;;8427706;28;20308;-74
2021/11/23 22:42:54;;;;;;;;;;;6.10;99.90;;;;;;8434086;28;19928;-73
2021/11/23 22:46:56;;;;;;;;;;;6.10;99.90;;;;;;8429703;28;19955;-73
2021/11/23 22:51:00;;;;;;;;;;;6.20;99.90;;;;;;8455304;27;19924;-73
2021/11/23 22:55:03;;;;;;;;;;;6.20;99.90;;;;;;8419085;28;19971;-73
2021/11/23 22:59:04;;;;;;;;;;;6.20;99.90;;;;;;8411136;28;20401;-73
2021/11/23 23:03:06;;;;;;;;;;;6.20;99.90;;;;;;8417812;28;19963;-74
2021/11/23 23:07:08;;;;;;;;;;;6.30;99.90;;;;;;8414090;28;19931;-74
2021/11/23 23:11:09;;;;;;;;;;;6.20;99.90;;;;;;8421356;28;19967;-73
2021/11/23 23:15:11;;;;;;;;;;;6.30;99.90;;;;;;8421592;28;19970;-73
2021/11/23 23:19:13;;;;;;;;;;;6.20;99.90;;;;;;8413227;28;20015;-73
2021/11/23 23:23:14;;;;;;;;;;;6.30;99.90;;;;;;8421409;28;19967;-74
2021/11/23 23:27:21;;;;;;;;;;;6.30;99.90;;;;;;8415270;28;19927;-73
2021/11/23 23:31:27;;;;;;;;;;;6.30;99.90;;;;;;8419404;28;19967;-73
2021/11/23 23:35:28;;;;;;;;;;;6.40;99.90;;;;;;8428425;28;19970;-73
2021/11/23 23:39:32;;;;;;;;;;;6.40;99.90;;;;;;8422294;28;19928;-73
2021/11/23 23:43:33;;;;;;;;;;;6.40;99.90;;;;;;8422000;28;19920;-73